Norwegian Pearl — C6VG7 — position and weather

sailwx.info

Track history (hours):
 
Tides and Currents Weather Stations Pressure Air Temp Water Temp Dewpoint Dewpoint Depression Visibility Wind Speed Wind Dir Waves Ship Positions

Norwegian Pearl

Last reported at 2017-Sep-20 11:00 UTC. Time now 2017-Sep-21 01:32 UTC.
Position N 59°00' W 135°12'.

Type: Ship. MMSI: 309653000.

Wind from 330 at 6 knots

Barometer 1014.9 mb
Air temperature 9.8 ° C
Visibility: greater than 5.4 NM
Water temperature 11.0 ° C

Date/timePositionNaut miles runAvg speedWind from/ knotsBaromVisibWave heightAir tempDewpointWater temp
2017-Sep-20 11:00N 59°00' W 135°12'2512.4 330 / 61014.9 5.4 9.8 11.0
2017-Sep-20 09:00N 58°36' W 135°00'29 9.2 030 / 71013.7 5.4 8.8 12.0
2017-Sep-20 05:49N 58°09' W 135°21'4 2.5
2017-Sep-20 04:18N 58°08' W 135°28'0 0.0
2017-Sep-20 04:00N 58°08' W 135°28'3 2.9
2017-Sep-20 03:00N 58°06' W 135°24'3 3.2 090 / 21010.3 5.4 12.0 11.0
2017-Sep-20 02:06N 58°08' W 135°28'0 0.0
2017-Sep-20 02:00N 58°08' W 135°28'32074.3
2017-Sep-20 02:00N 58°06' W 135°24'3 4.8 040 / 41010.3 5.4 12.0 11.0
2017-Sep-20 01:24N 58°08' W 135°28'3 7.2
2017-Sep-20 01:00N 58°06' W 135°24'3 0.7 030 / 31009.8 5.4 12.0 11.0
2017-Sep-19 20:37N 58°08' W 135°28'1 2.8
2017-Sep-19 20:09N 58°09' W 135°27'3415.9
2017-Sep-19 18:00N 57°42' W 134°48'3618.1 330 / 81007.8 5.4 12.0 11.0
2017-Sep-19 16:00N 57°06' W 134°42'2110.3 310 / 21007.2 5.4 10.2 10.0
2017-Sep-19 14:00N 56°48' W 134°24'1818.3 180 / 71006.2 5.4 10.2 13.0
2017-Sep-19 13:00N 56°30' W 134°30'1818.3 060 / 71006.2 5.4 10.2 13.0
2017-Sep-19 12:00N 56°12' W 134°24'2424.0 350 / 71006.2 5.4 10.2 13.0
2017-Sep-19 11:00N 55°48' W 134°24'1818.3 110 / 71006.2 5.4 10.2 13.0
2017-Sep-19 10:00N 55°30' W 134°18'1919.2 220 / 71006.4 5.4 11.2 14.0
2017-Sep-19 09:00N 55°12' W 134°06'2424.2 250 / 71006.7 5.4 11.2 14.0
2017-Sep-19 08:00N 54°48' W 134°00'1413.9 260 / 91007.0 5.4 11.4 14.0
2017-Sep-19 07:00N 54°36' W 133°48'3718.4 260 / 111007.5 5.4 12.0 13.0
2017-Sep-19 05:00N 54°24' W 132°48'1717.5 230 / 81007.5 5.4 12.0 13.0
2017-Sep-19 04:00N 54°24' W 132°18'920.0 280 / 81007.3 5.4 12.0 13.0
2017-Sep-19 03:33N 54°25' W 132°03'618.1
2017-Sep-19 03:12N 54°24' W 131°52'211.2
2017-Sep-19 03:00N 54°24' W 131°48'426.4 260 / 81007.0 5.4 12.0 13.0
2017-Sep-19 02:51N 54°24' W 131°42'718.7
2017-Sep-19 02:30N 54°23' W 131°31'918.5
2017-Sep-19 02:00N 54°22' W 131°15'4583.6
2017-Sep-19 02:00N 54°18' W 131°12'611.5 230 / 101006.9 5.4 11.9 14.0
2017-Sep-19 01:30N 54°15' W 131°04'1020.4
2017-Sep-19 01:00N 54°05' W 131°01'5358.4
2017-Sep-19 01:00N 54°00' W 131°00'5 9.6 270 / 101006.9 5.4 11.9 14.0
2017-Sep-19 00:30N 53°55' W 130°59'1020.1
2017-Sep-19 00:00N 53°45' W 130°56'1019.9
2017-Sep-18 23:30N 53°36' W 130°54'1120.2
2017-Sep-18 22:58N 53°25' W 130°51'1219.8
2017-Sep-18 22:22N 53°13' W 130°47'820.7
2017-Sep-18 22:00N 53°06' W 130°42'276276.3 200 / 21005.9 5.4 11.9 14.0
2017-Sep-18 21:00N 57°42' W 130°18'318318.1 100 / 81005.4 5.4 9.4 13.0
2017-Sep-18 20:00N 52°24' W 130°06'4819.1 110 / 161004.4 5.4 11.7 15.0
2017-Sep-18 17:28N 51°42' W 129°27'920.8
2017-Sep-18 17:00N 51°34' W 129°19'4335.5
2017-Sep-18 17:00N 51°30' W 129°18'817.1 120 / 201002.4 5.4 12.0 13.0
2017-Sep-18 16:30N 51°24' W 129°09'1223.5
2017-Sep-18 16:00N 51°14' W 128°58'3222.3
2017-Sep-18 16:00N 51°12' W 128°54'816.8 120 / 201002.4 5.4 12.0 13.0
2017-Sep-18 15:31N 51°05' W 128°47'1223.3
2017-Sep-18 15:01N 50°55' W 128°37'2726.2
2017-Sep-18 14:00N 50°30' W 128°24'2525.2 130 / 311006.4 5.4 10.7 13.0
2017-Sep-18 13:00N 50°06' W 128°12'2121.4 110 / 311006.4 5.4 10.7 13.0
2017-Sep-18 12:00N 49°48' W 127°54'3420.5 100 / 151006.4 5.4 10.7 13.0
2017-Sep-18 10:20N 49°25' W 127°16'822.5
2017-Sep-18 10:00N 49°20' W 127°07'2167.2
2017-Sep-18 10:00N 49°18' W 127°06'1019.6 230 / 91006.4 5.4 10.7 13.0
2017-Sep-18 09:30N 49°14' W 126°53'1122.4
2017-Sep-18 09:00N 49°08' W 126°39'2148.4
2017-Sep-18 09:00N 49°06' W 126°36'918.3 230 / 151006.9 5.4 12.3 15.0
2017-Sep-18 08:30N 49°01' W 126°24'1122.7
2017-Sep-18 08:01N 48°55' W 126°10'3173.8
2017-Sep-18 08:00N 48°54' W 126°06'918.6 180 / 181007.0 2.2 7.9 13.0
2017-Sep-18 07:31N 48°49' W 125°55'1224.2
2017-Sep-18 07:01N 48°42' W 125°40'1122.3
2017-Sep-18 06:30N 48°36' W 125°25'1121.4
2017-Sep-18 06:00N 48°33' W 125°10'3196.8
2017-Sep-18 06:00N 48°30' W 125°12'1225.1 240 / 101008.1 5.4 13.0 12.0
2017-Sep-18 05:30N 48°33' W 124°54'1121.4
2017-Sep-18 05:01N 48°30' W 124°39'2136.6
2017-Sep-18 05:00N 48°30' W 124°42'1326.9 080 / 31008.1 5.4 13.0 12.0
2017-Sep-18 04:30N 48°25' W 124°24'1121.7
2017-Sep-18 04:00N 48°21' W 124°09'1121.9
2017-Sep-18 03:30N 48°17' W 123°53'1122.4
2017-Sep-18 03:01N 48°15' W 123°37'5281.5
2017-Sep-18 03:00N 48°12' W 123°42'1225.2 250 / 191008.1 5.4 11.0 11.0
2017-Sep-18 02:31N 48°10' W 123°24'814.9
2017-Sep-18 01:59N 48°11' W 123°12'1121.3
2017-Sep-18 01:30N 48°12' W 122°57'1530.2
2017-Sep-18 01:00N 48°06' W 122°36'4277.6 360 / 61008.1 5.4 10.2 11.0
2017-Sep-18 00:59N 48°08' W 122°41'1022.1
2017-Sep-18 00:30N 47°59' W 122°35'1121.2
2017-Sep-18 00:01N 47°49' W 122°27'2141.0
2017-Sep-18 00:00N 47°48' W 122°24'816.7 170 / 171007.5 2.2 12.5 11.0
2017-Sep-17 23:31N 47°40' W 122°27'611.2
2017-Sep-17 23:01N 47°37' W 122°21'0 0.0
2017-Sep-17 22:30N 47°37' W 122°21'0 0.0
2017-Sep-17 22:00N 47°37' W 122°21'0 0.0
2017-Sep-17 21:30N 47°37' W 122°21'0 0.0
2017-Sep-17 21:00N 47°37' W 122°21'0 0.0
2017-Sep-17 20:30N 47°37' W 122°21'0 0.0
2017-Sep-17 20:00N 47°37' W 122°21'0 0.0
2017-Sep-17 19:30N 47°37' W 122°21'0 0.0
2017-Sep-17 19:00N 47°37' W 122°21'0 0.0
2017-Sep-17 18:30N 47°37' W 122°21'0 0.0
2017-Sep-17 18:00N 47°37' W 122°21'0 0.0
2017-Sep-17 17:30N 47°37' W 122°21'0 0.0
2017-Sep-17 17:00N 47°37' W 122°21'0 0.0
2017-Sep-17 16:30N 47°37' W 122°21'0 0.0
2017-Sep-17 16:00N 47°37' W 122°21'0 0.0
2017-Sep-17 15:30N 47°37' W 122°21'0 0.0
2017-Sep-17 15:00N 47°37' W 122°21'0 0.0
2017-Sep-17 14:30N 47°37' W 122°21'0 0.0
2017-Sep-17 14:00N 47°37' W 122°21'593884.4
2017-Sep-17 14:00N 48°36' W 122°18'59120.0 170 / 71011.2 5.4 11.5 11.0
2017-Sep-17 13:30N 47°37' W 122°21'0 0.0
2017-Sep-17 13:00N 47°37' W 122°21'2 3.4
2017-Sep-17 12:30N 47°37' W 122°24'611.8
2017-Sep-17 12:00N 47°42' W 122°28'713.9
2017-Sep-17 11:30N 47°49' W 122°28'713.5
2017-Sep-17 11:01N 47°55' W 122°31'611.8
2017-Sep-17 10:30N 47°60' W 122°37'815.1
2017-Sep-17 10:00N 48°07' W 122°41'8540.4
2017-Sep-17 10:00N 48°00' W 122°36'1530.7 300 / 31011.2 5.4 11.5 11.0
2017-Sep-17 09:30N 48°11' W 122°51'918.9
2017-Sep-17 09:00N 48°12' W 123°05'1019.7
2017-Sep-17 08:30N 48°11' W 123°20'713.7
2017-Sep-17 08:00N 48°12' W 123°30'72926.9
2017-Sep-17 08:00N 48°06' W 123°24'1429.5 260 / 151011.4 5.4 11.5 12.0
2017-Sep-17 07:30N 48°20' W 123°26'4 8.8
2017-Sep-17 07:01N 48°24' W 123°24'1 1.5
2017-Sep-17 06:28N 48°25' W 123°23'0 0.0
2017-Sep-17 05:58N 48°25' W 123°23'0 0.0
2017-Sep-17 05:28N 48°25' W 123°23'0 0.0
2017-Sep-17 04:58N 48°25' W 123°23'0 0.0
2017-Sep-17 04:28N 48°25' W 123°23'0 0.0
2017-Sep-17 03:58N 48°25' W 123°23'0 0.0
2017-Sep-17 03:28N 48°25' W 123°23'0 0.0
2017-Sep-17 02:58N 48°25' W 123°23'0 0.0
2017-Sep-17 02:28N 48°25' W 123°23'4 7.7
2017-Sep-17 02:00N 48°24' W 123°18'4172.5 180 / 21012.827.0 17.5 14.0
2017-Sep-17 01:58N 48°25' W 123°23'0 0.0
2017-Sep-17 01:28N 48°25' W 123°23'4 7.7
2017-Sep-17 01:00N 48°24' W 123°18'4174.8 180 / 21013.0 2.2 15.0 14.0
2017-Sep-17 00:58N 48°25' W 123°23'0 0.1
2017-Sep-17 00:30N 48°25' W 123°23'3 6.3
2017-Sep-17 00:01N 48°22' W 123°25'713.6
2017-Sep-16 23:31N 48°15' W 123°27'816.5
2017-Sep-16 23:00N 48°13' W 123°39'917.3
2017-Sep-16 22:30N 48°13' W 123°52'917.6
2017-Sep-16 22:00N 48°16' W 124°04'4343.5
2017-Sep-16 22:00N 48°12' W 124°06'1224.6 010 / 31015.1 2.2 10.2 14.0
2017-Sep-16 21:30N 48°20' W 124°19'1121.4
2017-Sep-16 21:00N 48°26' W 124°33'2162.0
2017-Sep-16 21:00N 48°24' W 124°30'1326.4 040 / 31015.3 0.0 9.4 14.0
2017-Sep-16 20:31N 48°28' W 124°48'1121.7
2017-Sep-16 20:00N 48°29' W 125°04'6369.7
2017-Sep-16 20:00N 48°24' W 125°00'1632.2 070 / 81015.8 5.4 11.0 14.0
2017-Sep-16 19:30N 48°33' W 125°19'1121.5
2017-Sep-16 19:00N 48°39' W 125°33'1121.5
2017-Sep-16 18:31N 48°45' W 125°46'1120.9
2017-Sep-16 18:00N 48°51' W 125°59'1021.0
2017-Sep-16 17:31N 48°57' W 126°12'1122.3
2017-Sep-16 17:01N 49°04' W 126°26'10592.0
2017-Sep-16 17:00N 49°00' W 126°12'2244.6 090 / 101016.2 5.4 15.0 15.0
2017-Sep-16 16:31N 49°10' W 126°41'1223.4
2017-Sep-16 16:01N 49°18' W 126°54'7442.1
2017-Sep-16 16:00N 49°12' W 126°48'1938.7 120 / 81016.2 5.4 14.0 15.0
2017-Sep-16 15:30N 49°26' W 127°08'1223.5
2017-Sep-16 15:00N 49°34' W 127°21'71615.7
2017-Sep-16 15:00N 49°30' W 127°12'2235.9 140 / 81016.2 5.4 14.0 15.0
2017-Sep-16 14:23N 49°45' W 127°35'512.7
2017-Sep-16 14:00N 49°48' W 127°42'2229.9 030 / 111015.9 5.4 11.8 13.0
2017-Sep-16 13:16N 50°06' W 127°60'623.7
2017-Sep-16 13:00N 50°12' W 128°04'3175.1
2017-Sep-16 13:00N 50°12' W 128°00'1327.2 010 / 181017.8 5.4 11.8 13.0
2017-Sep-16 12:30N 50°22' W 128°13'816.1
2017-Sep-16 12:00N 50°30' W 128°18'41461.2 080 / 251017.8 5.4 11.8 13.0
2017-Sep-16 11:59N 50°33' W 128°22'1123.5
2017-Sep-16 11:30N 50°44' W 128°29'1223.3
2017-Sep-16 11:01N 50°54' W 128°37'028.3
2017-Sep-16 11:00N 50°54' W 128°36'1225.1 340 / 111017.8 5.4 11.8 13.0
2017-Sep-16 10:31N 51°03' W 128°48'1223.8
2017-Sep-16 10:01N 51°13' W 128°59'185.0
2017-Sep-16 10:00N 51°12' W 129°00'1326.1 340 / 171017.7 5.4 12.2 14.0
2017-Sep-16 09:30N 51°23' W 129°09'1223.6
2017-Sep-16 09:00N 51°33' W 129°19'3205.3
2017-Sep-16 09:00N 51°30' W 129°18'1531.0 320 / 151018.0 5.4 12.2 15.0
2017-Sep-16 08:30N 51°43' W 129°29'1224.3
2017-Sep-16 08:00N 51°54' W 129°38'1224.4
2017-Sep-16 07:30N 52°05' W 129°46'1224.5
2017-Sep-16 07:00N 52°17' W 129°54'6359.8
2017-Sep-16 07:00N 52°12' W 129°48'1935.2 330 / 171018.3 5.4 14.0 14.0
2017-Sep-16 06:27N 52°29' W 130°02'715.9
2017-Sep-16 06:00N 52°36' W 130°06'5114.3 350 / 201018.3 5.4 14.0 14.0
2017-Sep-16 05:57N 52°40' W 130°10'1223.8
2017-Sep-16 05:27N 52°51' W 130°17'3 6.5
2017-Sep-16 05:00N 52°54' W 130°18'2138.5 350 / 201018.6 5.4 14.0 14.0
2017-Sep-16 04:27N 53°12' W 130°34'1123.7
2017-Sep-16 04:00N 53°22' W 130°41'5324.1
2017-Sep-16 04:00N 53°18' W 130°36'1734.7 360 / 191019.7 5.4 14.0 14.0
2017-Sep-16 03:31N 53°33' W 130°48'1223.6
2017-Sep-16 03:00N 53°45' W 130°53'4243.8
2017-Sep-16 03:00N 53°42' W 130°48'1531.5 300 / 81019.7 5.4 14.8 15.0
2017-Sep-16 02:31N 53°56' W 130°57'1223.9
2017-Sep-16 02:00N 54°08' W 131°01'1224.3
2017-Sep-16 01:30N 54°20' W 131°06'1223.7
2017-Sep-16 01:00N 54°31' W 131°14'1121.5
2017-Sep-16 00:30N 54°42' W 131°11'1121.9
2017-Sep-16 00:00N 54°52' W 131°06'1414.1
2017-Sep-15 23:00N 55°06' W 131°12'36 3.3 300 / 81019.7 5.4 14.8 15.0
2017-Sep-15 12:00N 55°30' W 132°00'1615.7 310 / 91021.5 5.4 10.0 14.0
2017-Sep-15 11:00N 55°42' W 132°18'2914.7 220 / 91021.5 5.4 10.0 14.0
2017-Sep-15 09:00N 56°06' W 132°48'3115.3 310 / 91021.9 5.4 10.3 17.0
2017-Sep-15 07:00N 56°12' W 133°42'1615.6 230 / 31021.9 5.4 11.0 9.0
2017-Sep-15 06:00N 56°00' W 134°00'1615.6 310 / 111021.9 5.4 11.0 9.0
2017-Sep-15 05:00N 56°12' W 134°18'1919.2 270 / 31022.8 5.4 11.0 9.0
2017-Sep-15 04:00N 56°30' W 134°30'2424.2 320 / 41023.0 5.4 11.0 9.0
2017-Sep-15 03:00N 56°54' W 134°36'2424.2 320 / 61023.5 5.4 9.0 9.0
2017-Sep-15 02:00N 57°18' W 134°42'2424.2 010 / 61023.5 5.4 9.0 9.0
2017-Sep-15 01:00N 57°42' W 134°48'3321.6 010 / 61023.5 5.4 9.0 9.0
2017-Sep-14 23:26N 58°11' W 135°21'1023.7
2017-Sep-14 23:00N 58°16' W 135°38'1121.3
2017-Sep-14 22:30N 58°20' W 135°56'815.0
2017-Sep-14 22:00N 58°27' W 136°01'3219.4
2017-Sep-14 22:00N 58°24' W 136°00'1428.8 110 / 31023.5 5.4 9.0 9.0
2017-Sep-14 21:31N 58°38' W 136°06'1121.4
2017-Sep-14 21:00N 58°46' W 136°20'8 1.7
2017-Sep-14 16:00N 58°48' W 136°36'624.7 270 / 81023.9 5.4 11.0 9.0
2017-Sep-14 15:44N 58°47' W 136°24'521.6
2017-Sep-14 15:30N 58°44' W 136°16'1121.6
2017-Sep-14 15:00N 58°35' W 136°04'918.5
2017-Sep-14 14:30N 58°26' W 135°59'4 8.9
2017-Sep-14 14:00N 58°22' W 135°57'5 9.9
2017-Sep-14 13:30N 58°19' W 135°50'611.0
2017-Sep-14 13:00N 58°17' W 135°40'611.2
2017-Sep-14 12:30N 58°15' W 135°30'610.9
2017-Sep-14 11:59N 58°13' W 135°20'71 7.1
2017-Sep-14 02:00N 59°24' W 135°18'0 0.0 180 / 161022.9 5.4 11.0 9.0
2017-Sep-14 01:00N 59°24' W 135°18'12 1.0 180 / 181024.5 5.4 11.0 9.0
2017-Sep-13 13:00N 59°12' W 135°18'2512.4 180 / 91025.6 7.9 12.0
2017-Sep-13 11:00N 58°48' W 135°06'1413.5 170 / 91025.7 5.4 9.1 12.0
2017-Sep-13 10:00N 58°36' W 134°54'3310.9 090 / 11025.9 5.4 8.9 11.0
2017-Sep-13 07:00N 58°12' W 134°12'6020.0 340 / 41025.8 5.4 8.1 12.0
2017-Sep-13 04:00N 57°12' W 134°18'0 0.0 110 / 41024.9 5.4 10.2 14.0
2017-Sep-13 03:00N 57°12' W 134°18'0 0.0 110 / 61024.9 5.4 10.2 14.0
2017-Sep-13 01:00N 57°12' W 134°18'7 0.8 120 / 41024.1 5.4 10.2 14.0
2017-Sep-12 16:00N 57°06' W 134°12'3718.7 280 / 21024.1 5.4 8.5 14.0
2017-Sep-12 14:00N 56°30' W 134°30'1212.0 340 / 41022.6 5.4 11.8 14.0
2017-Sep-12 13:00N 56°18' W 134°30'1818.3 310 / 41022.6 5.4 11.8 14.0
2017-Sep-12 12:00N 56°00' W 134°24'3015.1 290 / 121022.6 5.4 11.8 14.0
2017-Sep-12 10:00N 55°30' W 134°18'1818.3 260 / 101022.6 5.4 11.8 14.0
2017-Sep-12 09:00N 55°12' W 134°12'1919.3 280 / 51022.4 5.4 12.1 14.0
2017-Sep-12 08:00N 54°54' W 134°00'3718.7 270 / 51022.1 5.4 12.4 15.0
2017-Sep-12 06:00N 54°18' W 133°42'3919.3 250 / 101021.7 5.4 14.0 16.0
2017-Sep-12 04:00N 53°42' W 133°18'2626.3 270 / 171021.1 5.4 14.0 16.0
2017-Sep-12 03:00N 53°18' W 133°00'2121.0 250 / 141021.1 5.4 15.0 16.0
2017-Sep-12 02:00N 53°00' W 132°42'2121.0 250 / 141020.3 5.4 14.6 16.0
2017-Sep-12 01:00N 52°42' W 132°24'5618.6 280 / 141020.3 5.4 14.6 16.0
2017-Sep-11 22:00N 52°00' W 131°24'4019.9 290 / 141020.3 5.4 14.6 16.0
2017-Sep-11 20:00N 51°30' W 130°42'4019.9 260 / 161019.6 5.4 13.6 14.0
2017-Sep-11 18:00N 51°00' W 130°00'1312.8 280 / 161019.0 5.4 16.0 15.0
2017-Sep-11 17:00N 50°54' W 129°42'931.7 270 / 161018.5 5.4 16.0 15.0
2017-Sep-11 16:43N 50°48' W 129°33'418.8
2017-Sep-11 16:30N 50°45' W 129°28'918.9
2017-Sep-11 16:00N 50°38' W 129°17'2144.9
2017-Sep-11 16:00N 50°36' W 129°18'1017.2 280 / 111017.4 5.4 16.0 15.0
2017-Sep-11 15:26N 50°31' W 129°05'1022.3
2017-Sep-11 15:00N 50°24' W 128°54'1919.5 260 / 151016.6 5.4 16.0 15.0
2017-Sep-11 14:00N 50°12' W 128°30'1716.7 280 / 151017.1 5.4 14.9 15.0
2017-Sep-11 13:00N 50°00' W 128°12'2423.7 180 / 341017.1 5.4 14.9 15.0
2017-Sep-11 12:00N 49°42' W 127°48'3619.6 160 / 191017.1 5.4 14.9 15.0
2017-Sep-11 10:10N 49°19' W 127°06'321.2
2017-Sep-11 10:00N 49°17' W 127°02'7451.7
2017-Sep-11 10:00N 49°12' W 126°54'4 8.4 140 / 191021.1 5.4 14.9 15.0
2017-Sep-11 09:30N 49°11' W 126°48'1121.2
2017-Sep-11 09:00N 49°05' W 126°34'6649.2
2017-Sep-11 09:00N 49°00' W 126°30'612.8 130 / 191022.4 5.4 14.6 15.0
2017-Sep-11 08:30N 48°59' W 126°21'1121.4
2017-Sep-11 08:00N 48°54' W 126°07'7517.0
2017-Sep-11 08:00N 48°48' W 126°00'5 9.3 100 / 161023.6 5.4 14.6 16.0
2017-Sep-11 07:30N 48°48' W 125°53'1121.5
2017-Sep-11 07:00N 48°42' W 125°40'1121.7
2017-Sep-11 06:30N 48°36' W 125°26'1121.3
2017-Sep-11 06:00N 48°33' W 125°10'1122.0
2017-Sep-11 05:30N 48°32' W 124°54'1122.3
2017-Sep-11 05:00N 48°29' W 124°37'181077.7
2017-Sep-11 05:00N 48°24' W 124°12'713.9 250 / 61024.6 5.4 14.0 12.0
2017-Sep-11 04:30N 48°25' W 124°22'1121.9
2017-Sep-11 04:00N 48°20' W 124°07'2159.1
2017-Sep-11 04:00N 48°18' W 124°06'1020.2 240 / 101025.1 5.4 14.0 12.0
2017-Sep-11 03:30N 48°17' W 123°51'1121.4
2017-Sep-11 03:00N 48°15' W 123°36'5325.2
2017-Sep-11 03:00N 48°12' W 123°30'5 9.9 260 / 91024.9 5.4 15.0 12.0
2017-Sep-11 02:30N 48°10' W 123°24'612.2
2017-Sep-11 02:00N 48°11' W 123°14'1020.3
2017-Sep-11 01:30N 48°12' W 122°60'1119.5
2017-Sep-11 00:57N 48°10' W 122°44'818.6
2017-Sep-11 00:30N 48°02' W 122°38'1020.3
2017-Sep-11 00:00N 47°54' W 122°29'1121.4
2017-Sep-10 23:30N 47°44' W 122°26'815.0
2017-Sep-10 23:00N 47°37' W 122°22'0 0.8
2017-Sep-10 22:28N 47°37' W 122°21'0 0.0
2017-Sep-10 21:59N 47°37' W 122°21'0 0.0
2017-Sep-10 21:29N 47°37' W 122°21'0 0.0
2017-Sep-10 20:59N 47°37' W 122°21'0 0.0
2017-Sep-10 20:26N 47°37' W 122°21'0 0.0
2017-Sep-10 19:59N 47°37' W 122°21'0 0.0
2017-Sep-10 19:29N 47°37' W 122°21'0 0.0
2017-Sep-10 18:58N 47°37' W 122°21'0 0.0
2017-Sep-10 18:28N 47°37' W 122°21'0 0.0
2017-Sep-10 17:59N 47°37' W 122°21'0 0.0
2017-Sep-10 17:29N 47°37' W 122°21'0 0.0
2017-Sep-10 16:59N 47°37' W 122°21'0 0.0
2017-Sep-10 16:29N 47°37' W 122°21'0 0.0
2017-Sep-10 15:59N 47°37' W 122°21'0 0.0
2017-Sep-10 15:28N 47°37' W 122°21'2 4.5
2017-Sep-10 15:00N 47°36' W 122°18'2178.0 050 / 41025.0 5.4 14.0 13.0
2017-Sep-10 14:59N 47°37' W 122°21'2 2.2
2017-Sep-10 14:00N 47°36' W 122°18'2104.4 050 / 41025.0 5.4 14.0 13.0
2017-Sep-10 13:58N 47°37' W 122°21'0 0.0
2017-Sep-10 13:29N 47°37' W 122°21'0 0.0
2017-Sep-10 13:00N 47°37' W 122°21'2 3.3
2017-Sep-10 12:30N 47°37' W 122°24'611.6
2017-Sep-10 12:00N 47°42' W 122°28'713.9
2017-Sep-10 11:31N 47°48' W 122°28'713.7
2017-Sep-10 11:00N 47°55' W 122°30'  
Track history (hours):
 
Tides and Currents Weather Stations Pressure Air Temp Water Temp Dewpoint Dewpoint Depression Visibility Wind Speed Wind Dir Waves Ship Positions

Norwegian Pearl

Last reported at 2017-Sep-20 11:00 UTC. Time now 2017-Sep-21 01:32 UTC.
Position N 59°00' W 135°12'.

Type: Ship. MMSI: 309653000.

Wind from 330 at 6 knots

Barometer 1014.9 mb
Air temperature 9.8 ° C
Visibility: greater than 5.4 NM
Water temperature 11.0 ° C

Date/timePositionNaut miles runAvg speedWind from/ knotsBaromVisibWave heightAir tempDewpointWater temp
2017-Sep-20 11:00N 59°00' W 135°12'2512.4 330 / 61014.9 5.4 9.8 11.0
2017-Sep-20 09:00N 58°36' W 135°00'29 9.2 030 / 71013.7 5.4 8.8 12.0
2017-Sep-20 05:49N 58°09' W 135°21'4 2.5
2017-Sep-20 04:18N 58°08' W 135°28'0 0.0
2017-Sep-20 04:00N 58°08' W 135°28'3 2.9
2017-Sep-20 03:00N 58°06' W 135°24'3 3.2 090 / 21010.3 5.4 12.0 11.0
2017-Sep-20 02:06N 58°08' W 135°28'0 0.0
2017-Sep-20 02:00N 58°08' W 135°28'32074.3
2017-Sep-20 02:00N 58°06' W 135°24'3 4.8 040 / 41010.3 5.4 12.0 11.0
2017-Sep-20 01:24N 58°08' W 135°28'3 7.2
2017-Sep-20 01:00N 58°06' W 135°24'3 0.7 030 / 31009.8 5.4 12.0 11.0
2017-Sep-19 20:37N 58°08' W 135°28'1 2.8
2017-Sep-19 20:09N 58°09' W 135°27'3415.9
2017-Sep-19 18:00N 57°42' W 134°48'3618.1 330 / 81007.8 5.4 12.0 11.0
2017-Sep-19 16:00N 57°06' W 134°42'2110.3 310 / 21007.2 5.4 10.2 10.0
2017-Sep-19 14:00N 56°48' W 134°24'1818.3 180 / 71006.2 5.4 10.2 13.0
2017-Sep-19 13:00N 56°30' W 134°30'1818.3 060 / 71006.2 5.4 10.2 13.0
2017-Sep-19 12:00N 56°12' W 134°24'2424.0 350 / 71006.2 5.4 10.2 13.0
2017-Sep-19 11:00N 55°48' W 134°24'1818.3 110 / 71006.2 5.4 10.2 13.0
2017-Sep-19 10:00N 55°30' W 134°18'1919.2 220 / 71006.4 5.4 11.2 14.0
2017-Sep-19 09:00N 55°12' W 134°06'2424.2 250 / 71006.7 5.4 11.2 14.0
2017-Sep-19 08:00N 54°48' W 134°00'1413.9 260 / 91007.0 5.4 11.4 14.0
2017-Sep-19 07:00N 54°36' W 133°48'3718.4 260 / 111007.5 5.4 12.0 13.0
2017-Sep-19 05:00N 54°24' W 132°48'1717.5 230 / 81007.5 5.4 12.0 13.0
2017-Sep-19 04:00N 54°24' W 132°18'920.0 280 / 81007.3 5.4 12.0 13.0
2017-Sep-19 03:33N 54°25' W 132°03'618.1
2017-Sep-19 03:12N 54°24' W 131°52'211.2
2017-Sep-19 03:00N 54°24' W 131°48'426.4 260 / 81007.0 5.4 12.0 13.0
2017-Sep-19 02:51N 54°24' W 131°42'718.7
2017-Sep-19 02:30N 54°23' W 131°31'918.5
2017-Sep-19 02:00N 54°22' W 131°15'4583.6
2017-Sep-19 02:00N 54°18' W 131°12'611.5 230 / 101006.9 5.4 11.9 14.0
2017-Sep-19 01:30N 54°15' W 131°04'1020.4
2017-Sep-19 01:00N 54°05' W 131°01'5358.4
2017-Sep-19 01:00N 54°00' W 131°00'5 9.6 270 / 101006.9 5.4 11.9 14.0
2017-Sep-19 00:30N 53°55' W 130°59'1020.1
2017-Sep-19 00:00N 53°45' W 130°56'1019.9
2017-Sep-18 23:30N 53°36' W 130°54'1120.2
2017-Sep-18 22:58N 53°25' W 130°51'1219.8
2017-Sep-18 22:22N 53°13' W 130°47'820.7
2017-Sep-18 22:00N 53°06' W 130°42'276276.3 200 / 21005.9 5.4 11.9 14.0
2017-Sep-18 21:00N 57°42' W 130°18'318318.1 100 / 81005.4 5.4 9.4 13.0
2017-Sep-18 20:00N 52°24' W 130°06'4819.1 110 / 161004.4 5.4 11.7 15.0
2017-Sep-18 17:28N 51°42' W 129°27'920.8
2017-Sep-18 17:00N 51°34' W 129°19'4335.5
2017-Sep-18 17:00N 51°30' W 129°18'817.1 120 / 201002.4 5.4 12.0 13.0
2017-Sep-18 16:30N 51°24' W 129°09'1223.5
2017-Sep-18 16:00N 51°14' W 128°58'3222.3
2017-Sep-18 16:00N 51°12' W 128°54'816.8 120 / 201002.4 5.4 12.0 13.0
2017-Sep-18 15:31N 51°05' W 128°47'1223.3
2017-Sep-18 15:01N 50°55' W 128°37'2726.2
2017-Sep-18 14:00N 50°30' W 128°24'2525.2 130 / 311006.4 5.4 10.7 13.0
2017-Sep-18 13:00N 50°06' W 128°12'2121.4 110 / 311006.4 5.4 10.7 13.0
2017-Sep-18 12:00N 49°48' W 127°54'3420.5 100 / 151006.4 5.4 10.7 13.0
2017-Sep-18 10:20N 49°25' W 127°16'822.5
2017-Sep-18 10:00N 49°20' W 127°07'2167.2
2017-Sep-18 10:00N 49°18' W 127°06'1019.6 230 / 91006.4 5.4 10.7 13.0
2017-Sep-18 09:30N 49°14' W 126°53'1122.4
2017-Sep-18 09:00N 49°08' W 126°39'2148.4
2017-Sep-18 09:00N 49°06' W 126°36'918.3 230 / 151006.9 5.4 12.3 15.0
2017-Sep-18 08:30N 49°01' W 126°24'1122.7
2017-Sep-18 08:01N 48°55' W 126°10'3173.8
2017-Sep-18 08:00N 48°54' W 126°06'918.6 180 / 181007.0 2.2 7.9 13.0
2017-Sep-18 07:31N 48°49' W 125°55'1224.2
2017-Sep-18 07:01N 48°42' W 125°40'1122.3
2017-Sep-18 06:30N 48°36' W 125°25'1121.4
2017-Sep-18 06:00N 48°33' W 125°10'3196.8
2017-Sep-18 06:00N 48°30' W 125°12'1225.1 240 / 101008.1 5.4 13.0 12.0
2017-Sep-18 05:30N 48°33' W 124°54'1121.4
2017-Sep-18 05:01N 48°30' W 124°39'2136.6
2017-Sep-18 05:00N 48°30' W 124°42'1326.9 080 / 31008.1 5.4 13.0 12.0
2017-Sep-18 04:30N 48°25' W 124°24'1121.7
2017-Sep-18 04:00N 48°21' W 124°09'1121.9
2017-Sep-18 03:30N 48°17' W 123°53'1122.4
2017-Sep-18 03:01N 48°15' W 123°37'5281.5
2017-Sep-18 03:00N 48°12' W 123°42'1225.2 250 / 191008.1 5.4 11.0 11.0
2017-Sep-18 02:31N 48°10' W 123°24'814.9
2017-Sep-18 01:59N 48°11' W 123°12'1121.3
2017-Sep-18 01:30N 48°12' W 122°57'1530.2
2017-Sep-18 01:00N 48°06' W 122°36'4277.6 360 / 61008.1 5.4 10.2 11.0
2017-Sep-18 00:59N 48°08' W 122°41'1022.1
2017-Sep-18 00:30N 47°59' W 122°35'1121.2
2017-Sep-18 00:01N 47°49' W 122°27'2141.0
2017-Sep-18 00:00N 47°48' W 122°24'816.7 170 / 171007.5 2.2 12.5 11.0
2017-Sep-17 23:31N 47°40' W 122°27'611.2
2017-Sep-17 23:01N 47°37' W 122°21'0 0.0
2017-Sep-17 22:30N 47°37' W 122°21'0 0.0
2017-Sep-17 22:00N 47°37' W 122°21'0 0.0
2017-Sep-17 21:30N 47°37' W 122°21'0 0.0
2017-Sep-17 21:00N 47°37' W 122°21'0 0.0
2017-Sep-17 20:30N 47°37' W 122°21'0 0.0
2017-Sep-17 20:00N 47°37' W 122°21'0 0.0
2017-Sep-17 19:30N 47°37' W 122°21'0 0.0
2017-Sep-17 19:00N 47°37' W 122°21'0 0.0
2017-Sep-17 18:30N 47°37' W 122°21'0 0.0
2017-Sep-17 18:00N 47°37' W 122°21'0 0.0
2017-Sep-17 17:30N 47°37' W 122°21'0 0.0
2017-Sep-17 17:00N 47°37' W 122°21'0 0.0
2017-Sep-17 16:30N 47°37' W 122°21'0 0.0
2017-Sep-17 16:00N 47°37' W 122°21'0 0.0
2017-Sep-17 15:30N 47°37' W 122°21'0 0.0
2017-Sep-17 15:00N 47°37' W 122°21'0 0.0
2017-Sep-17 14:30N 47°37' W 122°21'0 0.0
2017-Sep-17 14:00N 47°37' W 122°21'593884.4
2017-Sep-17 14:00N 48°36' W 122°18'59120.0 170 / 71011.2 5.4 11.5 11.0
2017-Sep-17 13:30N 47°37' W 122°21'0 0.0
2017-Sep-17 13:00N 47°37' W 122°21'2 3.4
2017-Sep-17 12:30N 47°37' W 122°24'611.8
2017-Sep-17 12:00N 47°42' W 122°28'713.9
2017-Sep-17 11:30N 47°49' W 122°28'713.5
2017-Sep-17 11:01N 47°55' W 122°31'611.8
2017-Sep-17 10:30N 47°60' W 122°37'815.1
2017-Sep-17 10:00N 48°07' W 122°41'8540.4
2017-Sep-17 10:00N 48°00' W 122°36'1530.7 300 / 31011.2 5.4 11.5 11.0
2017-Sep-17 09:30N 48°11' W 122°51'918.9
2017-Sep-17 09:00N 48°12' W 123°05'1019.7
2017-Sep-17 08:30N 48°11' W 123°20'713.7
2017-Sep-17 08:00N 48°12' W 123°30'72926.9
2017-Sep-17 08:00N 48°06' W 123°24'1429.5 260 / 151011.4 5.4 11.5 12.0
2017-Sep-17 07:30N 48°20' W 123°26'4 8.8
2017-Sep-17 07:01N 48°24' W 123°24'1 1.5
2017-Sep-17 06:28N 48°25' W 123°23'0 0.0
2017-Sep-17 05:58N 48°25' W 123°23'0 0.0
2017-Sep-17 05:28N 48°25' W 123°23'0 0.0
2017-Sep-17 04:58N 48°25' W 123°23'0 0.0
2017-Sep-17 04:28N 48°25' W 123°23'0 0.0
2017-Sep-17 03:58N 48°25' W 123°23'0 0.0
2017-Sep-17 03:28N 48°25' W 123°23'0 0.0
2017-Sep-17 02:58N 48°25' W 123°23'0 0.0
2017-Sep-17 02:28N 48°25' W 123°23'4 7.7
2017-Sep-17 02:00N 48°24' W 123°18'4172.5 180 / 21012.827.0 17.5 14.0
2017-Sep-17 01:58N 48°25' W 123°23'0 0.0
2017-Sep-17 01:28N 48°25' W 123°23'4 7.7
2017-Sep-17 01:00N 48°24' W 123°18'4174.8 180 / 21013.0 2.2 15.0 14.0
2017-Sep-17 00:58N 48°25' W 123°23'0 0.1
2017-Sep-17 00:30N 48°25' W 123°23'3 6.3
2017-Sep-17 00:01N 48°22' W 123°25'713.6
2017-Sep-16 23:31N 48°15' W 123°27'816.5
2017-Sep-16 23:00N 48°13' W 123°39'917.3
2017-Sep-16 22:30N 48°13' W 123°52'917.6
2017-Sep-16 22:00N 48°16' W 124°04'4343.5
2017-Sep-16 22:00N 48°12' W 124°06'1224.6 010 / 31015.1 2.2 10.2 14.0
2017-Sep-16 21:30N 48°20' W 124°19'1121.4
2017-Sep-16 21:00N 48°26' W 124°33'2162.0
2017-Sep-16 21:00N 48°24' W 124°30'1326.4 040 / 31015.3 0.0 9.4 14.0
2017-Sep-16 20:31N 48°28' W 124°48'1121.7
2017-Sep-16 20:00N 48°29' W 125°04'6369.7
2017-Sep-16 20:00N 48°24' W 125°00'1632.2 070 / 81015.8 5.4 11.0 14.0
2017-Sep-16 19:30N 48°33' W 125°19'1121.5
2017-Sep-16 19:00N 48°39' W 125°33'1121.5
2017-Sep-16 18:31N 48°45' W 125°46'1120.9
2017-Sep-16 18:00N 48°51' W 125°59'1021.0
2017-Sep-16 17:31N 48°57' W 126°12'1122.3
2017-Sep-16 17:01N 49°04' W 126°26'10592.0
2017-Sep-16 17:00N 49°00' W 126°12'2244.6 090 / 101016.2 5.4 15.0 15.0
2017-Sep-16 16:31N 49°10' W 126°41'1223.4
2017-Sep-16 16:01N 49°18' W 126°54'7442.1
2017-Sep-16 16:00N 49°12' W 126°48'1938.7 120 / 81016.2 5.4 14.0 15.0
2017-Sep-16 15:30N 49°26' W 127°08'1223.5
2017-Sep-16 15:00N 49°34' W 127°21'71615.7
2017-Sep-16 15:00N 49°30' W 127°12'2235.9 140 / 81016.2 5.4 14.0 15.0
2017-Sep-16 14:23N 49°45' W 127°35'512.7
2017-Sep-16 14:00N 49°48' W 127°42'2229.9 030 / 111015.9 5.4 11.8 13.0
2017-Sep-16 13:16N 50°06' W 127°60'623.7
2017-Sep-16 13:00N 50°12' W 128°04'3175.1
2017-Sep-16 13:00N 50°12' W 128°00'1327.2 010 / 181017.8 5.4 11.8 13.0
2017-Sep-16 12:30N 50°22' W 128°13'816.1
2017-Sep-16 12:00N 50°30' W 128°18'41461.2 080 / 251017.8 5.4 11.8 13.0
2017-Sep-16 11:59N 50°33' W 128°22'1123.5
2017-Sep-16 11:30N 50°44' W 128°29'1223.3
2017-Sep-16 11:01N 50°54' W 128°37'028.3
2017-Sep-16 11:00N 50°54' W 128°36'1225.1 340 / 111017.8 5.4 11.8 13.0
2017-Sep-16 10:31N 51°03' W 128°48'1223.8
2017-Sep-16 10:01N 51°13' W 128°59'185.0
2017-Sep-16 10:00N 51°12' W 129°00'1326.1 340 / 171017.7 5.4 12.2 14.0
2017-Sep-16 09:30N 51°23' W 129°09'1223.6
2017-Sep-16 09:00N 51°33' W 129°19'3205.3
2017-Sep-16 09:00N 51°30' W 129°18'1531.0 320 / 151018.0 5.4 12.2 15.0
2017-Sep-16 08:30N 51°43' W 129°29'1224.3
2017-Sep-16 08:00N 51°54' W 129°38'1224.4
2017-Sep-16 07:30N 52°05' W 129°46'1224.5
2017-Sep-16 07:00N 52°17' W 129°54'6359.8
2017-Sep-16 07:00N 52°12' W 129°48'1935.2 330 / 171018.3 5.4 14.0 14.0
2017-Sep-16 06:27N 52°29' W 130°02'715.9
2017-Sep-16 06:00N 52°36' W 130°06'5114.3 350 / 201018.3 5.4 14.0 14.0
2017-Sep-16 05:57N 52°40' W 130°10'1223.8
2017-Sep-16 05:27N 52°51' W 130°17'3 6.5
2017-Sep-16 05:00N 52°54' W 130°18'2138.5 350 / 201018.6 5.4 14.0 14.0
2017-Sep-16 04:27N 53°12' W 130°34'1123.7
2017-Sep-16 04:00N 53°22' W 130°41'5324.1
2017-Sep-16 04:00N 53°18' W 130°36'1734.7 360 / 191019.7 5.4 14.0 14.0
2017-Sep-16 03:31N 53°33' W 130°48'1223.6
2017-Sep-16 03:00N 53°45' W 130°53'4243.8
2017-Sep-16 03:00N 53°42' W 130°48'1531.5 300 / 81019.7 5.4 14.8 15.0
2017-Sep-16 02:31N 53°56' W 130°57'1223.9
2017-Sep-16 02:00N 54°08' W 131°01'1224.3
2017-Sep-16 01:30N 54°20' W 131°06'1223.7
2017-Sep-16 01:00N 54°31' W 131°14'1121.5
2017-Sep-16 00:30N 54°42' W 131°11'1121.9
2017-Sep-16 00:00N 54°52' W 131°06'1414.1
2017-Sep-15 23:00N 55°06' W 131°12'36 3.3 300 / 81019.7 5.4 14.8 15.0
2017-Sep-15 12:00N 55°30' W 132°00'1615.7 310 / 91021.5 5.4 10.0 14.0
2017-Sep-15 11:00N 55°42' W 132°18'2914.7 220 / 91021.5 5.4 10.0 14.0
2017-Sep-15 09:00N 56°06' W 132°48'3115.3 310 / 91021.9 5.4 10.3 17.0
2017-Sep-15 07:00N 56°12' W 133°42'1615.6 230 / 31021.9 5.4 11.0 9.0
2017-Sep-15 06:00N 56°00' W 134°00'1615.6 310 / 111021.9 5.4 11.0 9.0
2017-Sep-15 05:00N 56°12' W 134°18'1919.2 270 / 31022.8 5.4 11.0 9.0
2017-Sep-15 04:00N 56°30' W 134°30'2424.2 320 / 41023.0 5.4 11.0 9.0
2017-Sep-15 03:00N 56°54' W 134°36'2424.2 320 / 61023.5 5.4 9.0 9.0
2017-Sep-15 02:00N 57°18' W 134°42'2424.2 010 / 61023.5 5.4 9.0 9.0
2017-Sep-15 01:00N 57°42' W 134°48'3321.6 010 / 61023.5 5.4 9.0 9.0
2017-Sep-14 23:26N 58°11' W 135°21'1023.7
2017-Sep-14 23:00N 58°16' W 135°38'1121.3
2017-Sep-14 22:30N 58°20' W 135°56'815.0
2017-Sep-14 22:00N 58°27' W 136°01'3219.4
2017-Sep-14 22:00N 58°24' W 136°00'1428.8 110 / 31023.5 5.4 9.0 9.0
2017-Sep-14 21:31N 58°38' W 136°06'1121.4
2017-Sep-14 21:00N 58°46' W 136°20'8 1.7
2017-Sep-14 16:00N 58°48' W 136°36'624.7 270 / 81023.9 5.4 11.0 9.0
2017-Sep-14 15:44N 58°47' W 136°24'521.6
2017-Sep-14 15:30N 58°44' W 136°16'1121.6
2017-Sep-14 15:00N 58°35' W 136°04'918.5
2017-Sep-14 14:30N 58°26' W 135°59'4 8.9
2017-Sep-14 14:00N 58°22' W 135°57'5 9.9
2017-Sep-14 13:30N 58°19' W 135°50'611.0
2017-Sep-14 13:00N 58°17' W 135°40'611.2
2017-Sep-14 12:30N 58°15' W 135°30'610.9
2017-Sep-14 11:59N 58°13' W 135°20'71 7.1
2017-Sep-14 02:00N 59°24' W 135°18'0 0.0 180 / 161022.9 5.4 11.0 9.0
2017-Sep-14 01:00N 59°24' W 135°18'12 1.0 180 / 181024.5 5.4 11.0 9.0
2017-Sep-13 13:00N 59°12' W 135°18'2512.4 180 / 91025.6 7.9 12.0
2017-Sep-13 11:00N 58°48' W 135°06'1413.5 170 / 91025.7 5.4 9.1 12.0
2017-Sep-13 10:00N 58°36' W 134°54'3310.9 090 / 11025.9 5.4 8.9 11.0
2017-Sep-13 07:00N 58°12' W 134°12'6020.0 340 / 41025.8 5.4 8.1 12.0
2017-Sep-13 04:00N 57°12' W 134°18'0 0.0 110 / 41024.9 5.4 10.2 14.0
2017-Sep-13 03:00N 57°12' W 134°18'0 0.0 110 / 61024.9 5.4 10.2 14.0
2017-Sep-13 01:00N 57°12' W 134°18'7 0.8 120 / 41024.1 5.4 10.2 14.0
2017-Sep-12 16:00N 57°06' W 134°12'3718.7 280 / 21024.1 5.4 8.5 14.0
2017-Sep-12 14:00N 56°30' W 134°30'1212.0 340 / 41022.6 5.4 11.8 14.0
2017-Sep-12 13:00N 56°18' W 134°30'1818.3 310 / 41022.6 5.4 11.8 14.0
2017-Sep-12 12:00N 56°00' W 134°24'3015.1 290 / 121022.6 5.4 11.8 14.0
2017-Sep-12 10:00N 55°30' W 134°18'1818.3 260 / 101022.6 5.4 11.8 14.0
2017-Sep-12 09:00N 55°12' W 134°12'1919.3 280 / 51022.4 5.4 12.1 14.0
2017-Sep-12 08:00N 54°54' W 134°00'3718.7 270 / 51022.1 5.4 12.4 15.0
2017-Sep-12 06:00N 54°18' W 133°42'3919.3 250 / 101021.7 5.4 14.0 16.0
2017-Sep-12 04:00N 53°42' W 133°18'2626.3 270 / 171021.1 5.4 14.0 16.0
2017-Sep-12 03:00N 53°18' W 133°00'2121.0 250 / 141021.1 5.4 15.0 16.0
2017-Sep-12 02:00N 53°00' W 132°42'2121.0 250 / 141020.3 5.4 14.6 16.0
2017-Sep-12 01:00N 52°42' W 132°24'5618.6 280 / 141020.3 5.4 14.6 16.0
2017-Sep-11 22:00N 52°00' W 131°24'4019.9 290 / 141020.3 5.4 14.6 16.0
2017-Sep-11 20:00N 51°30' W 130°42'4019.9 260 / 161019.6 5.4 13.6 14.0
2017-Sep-11 18:00N 51°00' W 130°00'1312.8 280 / 161019.0 5.4 16.0 15.0
2017-Sep-11 17:00N 50°54' W 129°42'931.7 270 / 161018.5 5.4 16.0 15.0
2017-Sep-11 16:43N 50°48' W 129°33'418.8
2017-Sep-11 16:30N 50°45' W 129°28'918.9
2017-Sep-11 16:00N 50°38' W 129°17'2144.9
2017-Sep-11 16:00N 50°36' W 129°18'1017.2 280 / 111017.4 5.4 16.0 15.0
2017-Sep-11 15:26N 50°31' W 129°05'1022.3
2017-Sep-11 15:00N 50°24' W 128°54'1919.5 260 / 151016.6 5.4 16.0 15.0
2017-Sep-11 14:00N 50°12' W 128°30'1716.7 280 / 151017.1 5.4 14.9 15.0
2017-Sep-11 13:00N 50°00' W 128°12'2423.7 180 / 341017.1 5.4 14.9 15.0
2017-Sep-11 12:00N 49°42' W 127°48'3619.6 160 / 191017.1 5.4 14.9 15.0
2017-Sep-11 10:10N 49°19' W 127°06'321.2
2017-Sep-11 10:00N 49°17' W 127°02'7451.7
2017-Sep-11 10:00N 49°12' W 126°54'4 8.4 140 / 191021.1 5.4 14.9 15.0
2017-Sep-11 09:30N 49°11' W 126°48'1121.2
2017-Sep-11 09:00N 49°05' W 126°34'6649.2
2017-Sep-11 09:00N 49°00' W 126°30'612.8 130 / 191022.4 5.4 14.6 15.0
2017-Sep-11 08:30N 48°59' W 126°21'1121.4
2017-Sep-11 08:00N 48°54' W 126°07'7517.0
2017-Sep-11 08:00N 48°48' W 126°00'5 9.3 100 / 161023.6 5.4 14.6 16.0
2017-Sep-11 07:30N 48°48' W 125°53'1121.5
2017-Sep-11 07:00N 48°42' W 125°40'1121.7
2017-Sep-11 06:30N 48°36' W 125°26'1121.3
2017-Sep-11 06:00N 48°33' W 125°10'1122.0
2017-Sep-11 05:30N 48°32' W 124°54'1122.3
2017-Sep-11 05:00N 48°29' W 124°37'181077.7
2017-Sep-11 05:00N 48°24' W 124°12'713.9 250 / 61024.6 5.4 14.0 12.0
2017-Sep-11 04:30N 48°25' W 124°22'1121.9
2017-Sep-11 04:00N 48°20' W 124°07'2159.1
2017-Sep-11 04:00N 48°18' W 124°06'1020.2 240 / 101025.1 5.4 14.0 12.0
2017-Sep-11 03:30N 48°17' W 123°51'1121.4
2017-Sep-11 03:00N 48°15' W 123°36'5325.2
2017-Sep-11 03:00N 48°12' W 123°30'5 9.9 260 / 91024.9 5.4 15.0 12.0
2017-Sep-11 02:30N 48°10' W 123°24'612.2
2017-Sep-11 02:00N 48°11' W 123°14'1020.3
2017-Sep-11 01:30N 48°12' W 122°60'1119.5
2017-Sep-11 00:57N 48°10' W 122°44'818.6
2017-Sep-11 00:30N 48°02' W 122°38'1020.3
2017-Sep-11 00:00N 47°54' W 122°29'1121.4
2017-Sep-10 23:30N 47°44' W 122°26'815.0
2017-Sep-10 23:00N 47°37' W 122°22'0 0.8
2017-Sep-10 22:28N 47°37' W 122°21'0 0.0
2017-Sep-10 21:59N 47°37' W 122°21'0 0.0
2017-Sep-10 21:29N 47°37' W 122°21'0 0.0
2017-Sep-10 20:59N 47°37' W 122°21'0 0.0
2017-Sep-10 20:26N 47°37' W 122°21'0 0.0
2017-Sep-10 19:59N 47°37' W 122°21'0 0.0
2017-Sep-10 19:29N 47°37' W 122°21'0 0.0
2017-Sep-10 18:58N 47°37' W 122°21'0 0.0
2017-Sep-10 18:28N 47°37' W 122°21'0 0.0
2017-Sep-10 17:59N 47°37' W 122°21'0 0.0
2017-Sep-10 17:29N 47°37' W 122°21'0 0.0
2017-Sep-10 16:59N 47°37' W 122°21'0 0.0
2017-Sep-10 16:29N 47°37' W 122°21'0 0.0
2017-Sep-10 15:59N 47°37' W 122°21'0 0.0
2017-Sep-10 15:28N 47°37' W 122°21'2 4.5
2017-Sep-10 15:00N 47°36' W 122°18'2178.0 050 / 41025.0 5.4 14.0 13.0
2017-Sep-10 14:59N 47°37' W 122°21'2 2.2
2017-Sep-10 14:00N 47°36' W 122°18'2104.4 050 / 41025.0 5.4 14.0 13.0
2017-Sep-10 13:58N 47°37' W 122°21'0 0.0
2017-Sep-10 13:29N 47°37' W 122°21'0 0.0
2017-Sep-10 13:00N 47°37' W 122°21'2 3.3
2017-Sep-10 12:30N 47°37' W 122°24'611.6
2017-Sep-10 12:00N 47°42' W 122°28'713.9
2017-Sep-10 11:31N 47°48' W 122°28'713.7
2017-Sep-10 11:00N 47°55' W 122°30'  

Dump ship's entire track history